Manilla, Iowa
Current Conditions -  °F | °C
As of 3:15 AM on Sunday 26 Oct 2014 (Local Time) from KDNS Reporting Station
Overcast Overcast  
Wind Chill: 50°   Ceiling: 5500
Heat Index: 50°   Visibility: 10mi
Dew Point: 37°   Wind: 6mph
Humidity: 62%   Direction: 100°E
Pressure: 29.98"   Gusts: NA
Location:  41.89°N, 95.23°W
Report Text: KDNS 260815Z AUTO 10005KT 10SM OVC055 10/03 A2998 RMK AO2
Loading
Personal Weather Stations






























Interactive Weather Map
Tropical Storm Tracking
New forecast layout! Learn more

10-Day Weather Forecast

Advertisements
Track Severe Weather on mobile